Ana Sayfa
METAR-TAF:

METAR-TAF

Havaalanları :

Wagga Wagga, Avustralya

Enlem: 35-09S, Boylam: 147-27E, yükseklik: 221 m

Güncel hava durumu gözlemi

Rapor saat 01:30 UTC de 33 dakika önce yapıldı.
Rüzgar kuzeydan 5 kt, kuzeybatı ve kuzey/kuzeydoğu arasında değişken
Sıcaklık 5°C
Nem 93%
Basınç 1025 hPa
Görüş mesafesi 10 km veya daha fazla
500 ft yükseklikte az bulutlu
1000 ft yükseklikte parçalı çok bulutlu

METAR: YSWG 200130Z 35005KT 310V030 9999 FEW005 BKN010 05/04 Q1025

Saat: 12:03 (02:03 UTC)


TAF: eksik

4.000'den fazla havaalanı için hava durumu gözlemleri ve tahminleri (METAR ve TAF raporları).

Kullanılabilir istasyonlar harita üzerinde sarı ve kırmızı noktalarla gösterilir.

İstasyonun adını görmek için fareyi noktanın üzerinde gezdirin.

Sonrasında hava gözlem ve tahminlerini görmek için tıklayın.

Haritayı değiştirmek için: yaklaştırmak için siyah artı işaretli yeşil düğmeye ve uzaklaştırmak için de eksi işaretli düğmeye hızla tıklayın; bitişik haritalar için yeşil okları kullanın.


METAR-TAF: